createdAt,value
2022-10-01T00:02:15.033Z,100.00
2022-10-01T00:07:15.505Z,100.00
2022-10-01T00:12:15.051Z,100.00
2022-10-01T00:17:15.018Z,100.00
2022-10-01T00:22:15.039Z,100.00
2022-10-01T00:27:15.261Z,100.00
2022-10-01T00:32:15.006Z,100.00
2022-10-01T00:37:15.039Z,100.00
2022-10-01T00:47:15.181Z,100.00
2022-10-01T00:52:15.047Z,100.00
2022-10-01T00:57:15.157Z,100.00
2022-10-01T01:02:15.072Z,100.00
2022-10-01T01:07:15.125Z,100.00
2022-10-01T01:12:15.084Z,100.00
2022-10-01T01:17:15.093Z,100.00
2022-10-01T01:22:15.063Z,100.00
2022-10-01T01:27:15.397Z,100.00
2022-10-01T01:32:15.175Z,100.00
2022-10-01T01:37:15.366Z,100.00
2022-10-01T01:42:15.091Z,100.00
2022-10-01T01:47:15.332Z,100.00
2022-10-01T01:52:15.242Z,100.00
2022-10-01T01:57:15.304Z,100.00
2022-10-01T02:07:15.524Z,100.00
2022-10-01T02:12:15.099Z,100.00
2022-10-01T02:17:15.250Z,100.00
2022-10-01T02:22:15.093Z,100.00
2022-10-01T02:27:15.217Z,100.00
2022-10-01T02:32:15.059Z,100.00
2022-10-01T02:37:15.161Z,100.00
2022-10-01T02:42:15.191Z,100.00
2022-10-01T02:47:15.137Z,100.00
2022-10-01T02:52:15.091Z,100.00
2022-10-01T02:57:15.427Z,100.00
2022-10-01T03:02:15.320Z,100.00
2022-10-01T03:07:15.069Z,100.00
2022-10-01T03:12:15.109Z,100.00
2022-10-01T03:22:15.109Z,100.00
2022-10-01T03:27:15.117Z,100.00
2022-10-01T03:32:15.111Z,100.00
2022-10-01T03:37:15.132Z,100.00
2022-10-01T03:42:15.149Z,100.00
2022-10-01T03:47:15.133Z,100.00
2022-10-01T03:52:15.123Z,100.00
2022-10-01T03:57:15.468Z,100.00
2022-10-01T04:02:15.206Z,100.00
2022-10-01T04:07:15.139Z,100.00
2022-10-01T04:12:15.162Z,100.00
2022-10-01T04:17:15.174Z,100.00
2022-10-01T04:22:15.158Z,100.00
2022-10-01T04:32:15.166Z,100.00
2022-10-01T04:37:15.429Z,100.00
2022-10-01T04:42:15.133Z,100.00
2022-10-01T04:47:15.395Z,100.00
2022-10-01T04:52:15.149Z,100.00
2022-10-01T04:57:15.160Z,100.00
2022-10-01T05:02:15.212Z,100.00
2022-10-01T05:07:15.156Z,100.00
2022-10-01T05:12:15.154Z,100.00
2022-10-01T05:17:15.176Z,100.00
2022-10-01T05:22:15.159Z,100.00
2022-10-01T05:27:15.273Z,100.00
2022-10-01T05:32:15.144Z,100.00
2022-10-01T05:37:15.265Z,100.00
2022-10-01T05:42:15.173Z,100.00
2022-10-01T05:47:15.237Z,100.00
2022-10-01T05:52:15.186Z,100.00
2022-10-01T05:57:15.486Z,100.00
2022-10-01T06:02:15.273Z,100.00
2022-10-01T06:07:15.485Z,100.00
2022-10-01T06:12:19.587Z,100.00
2022-10-01T06:17:15.431Z,100.00
2022-10-01T06:22:15.186Z,100.00
2022-10-01T06:32:15.276Z,100.00
2022-10-01T06:37:15.380Z,100.00
2022-10-01T06:42:15.210Z,100.00
2022-10-01T06:47:15.366Z,100.00
2022-10-01T06:52:15.169Z,100.00
2022-10-01T06:57:15.196Z,100.00
2022-10-01T07:02:15.242Z,100.00
2022-10-01T07:07:15.310Z,100.00
2022-10-01T07:12:15.198Z,100.00
2022-10-01T07:17:15.214Z,100.00
2022-10-01T07:22:15.238Z,100.00
2022-10-01T07:27:15.559Z,100.00
2022-10-01T07:32:15.287Z,100.00
2022-10-01T07:37:15.226Z,100.00
2022-10-01T07:42:15.200Z,100.00
2022-10-01T07:47:15.236Z,100.00
2022-10-01T07:52:15.469Z,100.00
2022-10-01T07:57:15.256Z,100.00
2022-10-01T08:02:15.319Z,100.00
2022-10-01T08:07:15.245Z,100.00
2022-10-01T08:12:15.244Z,100.00
2022-10-01T08:17:15.254Z,100.00
2022-10-01T08:22:15.258Z,100.00
2022-10-01T08:27:15.376Z,100.00
2022-10-01T08:32:15.260Z,100.00
2022-10-01T08:37:15.351Z,100.00
2022-10-01T08:42:15.263Z,100.00
2022-10-01T08:47:15.322Z,100.00
2022-10-01T08:52:17.267Z,100.00
2022-10-01T08:57:15.590Z,100.00
2022-10-01T09:02:15.273Z,100.00
2022-10-01T09:07:15.553Z,100.00
2022-10-01T09:12:15.254Z,100.00
2022-10-01T09:22:15.280Z,100.00
2022-10-01T09:27:15.490Z,100.00
2022-10-01T09:32:15.288Z,100.00
2022-10-01T09:37:15.484Z,100.00
2022-10-01T09:42:15.534Z,100.00
2022-10-01T09:47:15.433Z,100.00
2022-10-01T09:52:15.262Z,100.00
2022-10-01T09:57:17.632Z,100.00
2022-10-01T10:02:15.393Z,100.00
2022-10-01T10:07:15.362Z,100.00
2022-10-01T10:12:15.332Z,100.00
2022-10-01T10:17:15.353Z,100.00
2022-10-01T10:22:17.303Z,100.00
2022-10-01T10:27:15.665Z,100.00
2022-10-01T10:32:15.326Z,100.00
2022-10-01T10:37:15.287Z,100.00
2022-10-01T10:42:17.332Z,98.52
2022-10-01T10:47:15.539Z,97.14
2022-10-01T10:52:15.530Z,96.19
2022-10-01T10:57:15.327Z,95.70
2022-10-01T11:02:15.347Z,95.70
2022-10-01T11:07:17.416Z,96.10
2022-10-01T11:12:15.357Z,95.77
2022-10-01T11:17:15.340Z,95.60
2022-10-01T11:22:15.327Z,95.60
2022-10-01T11:27:15.442Z,96.73
2022-10-01T11:32:15.350Z,97.09
2022-10-01T11:37:15.336Z,96.70
2022-10-01T11:42:15.369Z,96.70
2022-10-01T11:47:15.404Z,95.08
2022-10-01T11:52:15.358Z,93.03
2022-10-01T11:57:15.381Z,90.00
2022-10-01T12:02:15.529Z,89.18
2022-10-01T12:07:15.358Z,90.19
2022-10-01T12:12:15.380Z,90.65
2022-10-01T12:17:15.668Z,89.67
2022-10-01T12:22:15.370Z,87.82
2022-10-01T12:27:15.594Z,88.57
2022-10-01T12:32:15.373Z,89.53
2022-10-01T12:37:15.556Z,89.56
2022-10-01T12:42:15.420Z,88.92
2022-10-01T12:47:15.589Z,89.13
2022-10-01T12:52:15.363Z,90.03
2022-10-01T12:57:19.494Z,90.03
2022-10-01T13:02:15.523Z,90.76
2022-10-01T13:07:15.473Z,90.92
2022-10-01T13:12:15.410Z,89.73
2022-10-01T13:22:15.530Z,88.68
2022-10-01T13:27:17.754Z,88.75
2022-10-01T13:32:15.400Z,88.75
2022-10-01T13:37:15.990Z,88.92
2022-10-01T13:42:17.413Z,90.59
2022-10-01T13:47:17.661Z,90.59
2022-10-01T13:52:15.393Z,92.59
2022-10-01T13:57:17.432Z,91.94
2022-10-01T14:02:15.524Z,91.41
2022-10-01T14:07:15.412Z,90.00
2022-10-01T14:12:15.436Z,90.65
2022-10-01T14:17:15.429Z,90.43
2022-10-01T14:22:17.461Z,90.43
2022-10-01T14:27:15.543Z,90.10
2022-10-01T14:32:17.435Z,90.19
2022-10-01T14:37:17.305Z,90.23
2022-10-01T14:42:17.116Z,90.63
2022-10-01T14:47:15.692Z,90.53
2022-10-01T14:52:17.435Z,91.08
2022-10-01T14:57:15.758Z,91.41
2022-10-01T15:02:17.443Z,91.82
2022-10-01T15:07:15.726Z,91.61
2022-10-01T15:12:15.465Z,91.21
2022-10-01T15:17:15.683Z,91.39
2022-10-01T15:22:15.441Z,91.99
2022-10-01T15:27:15.669Z,92.71
2022-10-01T15:32:15.485Z,92.32
2022-10-01T15:37:15.642Z,92.63
2022-10-01T15:42:15.467Z,92.63
2022-10-01T15:47:15.615Z,91.69
2022-10-01T15:52:15.442Z,92.38
2022-10-01T15:57:15.562Z,92.55
2022-10-01T16:02:15.539Z,92.09
2022-10-01T16:07:15.553Z,92.09
2022-10-01T16:12:15.484Z,92.39
2022-10-01T16:17:15.525Z,92.88
2022-10-01T16:22:15.458Z,91.98
2022-10-01T16:27:15.787Z,91.98
2022-10-01T16:32:15.466Z,91.97
2022-10-01T16:42:23.721Z,91.35
2022-10-01T16:47:15.740Z,89.33
2022-10-01T16:52:15.485Z,89.33
2022-10-01T16:57:17.490Z,89.44
2022-10-01T17:02:15.597Z,86.15
2022-10-01T17:07:15.533Z,87.24
2022-10-01T17:12:15.473Z,87.24
2022-10-01T17:17:15.644Z,83.48
2022-10-01T17:22:15.534Z,83.06
2022-10-01T17:27:15.619Z,82.76
2022-10-01T17:32:15.493Z,81.97
2022-10-01T17:37:15.573Z,81.71
2022-10-01T17:42:15.533Z,82.35
2022-10-01T17:47:15.517Z,82.35
2022-10-01T17:52:15.541Z,83.15
2022-10-01T17:57:15.843Z,84.33
2022-10-01T18:02:39.917Z,81.66
2022-10-01T18:07:15.812Z,79.89
2022-10-01T18:12:15.544Z,79.89
2022-10-01T18:17:15.782Z,78.20
2022-10-01T18:22:15.537Z,78.40
2022-10-01T18:27:15.751Z,78.54
2022-10-01T18:32:15.542Z,78.62
2022-10-01T18:37:15.549Z,79.34
2022-10-01T18:52:15.579Z,79.93
2022-10-01T18:57:17.693Z,79.54
2022-10-01T19:02:15.808Z,79.20
2022-10-01T19:07:17.630Z,78.73
2022-10-01T19:12:15.575Z,78.86
2022-10-01T19:17:15.592Z,78.86
2022-10-01T19:22:15.545Z,75.69
2022-10-01T19:27:15.905Z,76.59
2022-10-01T19:32:17.575Z,76.92
2022-10-01T19:37:15.581Z,77.43
2022-10-01T19:47:15.601Z,80.34
2022-10-01T19:57:15.593Z,80.76
2022-10-01T20:02:15.638Z,81.54
2022-10-01T20:07:15.767Z,82.18
2022-10-01T20:12:15.602Z,83.37
2022-10-01T20:17:15.735Z,82.32
2022-10-01T20:22:15.567Z,82.15
2022-10-01T20:27:15.604Z,82.15
2022-10-01T20:32:15.599Z,80.89
2022-10-01T20:37:15.688Z,80.89
2022-10-01T20:42:15.671Z,82.46
2022-10-01T20:47:15.649Z,81.65
2022-10-01T20:52:15.632Z,81.48
2022-10-01T20:57:15.930Z,80.21
2022-10-01T21:02:15.711Z,79.99
2022-10-01T21:07:17.912Z,79.39
2022-10-01T21:12:15.629Z,78.26
2022-10-01T21:17:15.865Z,78.28
2022-10-01T21:22:15.645Z,78.28
2022-10-01T21:27:15.684Z,78.81
2022-10-01T21:32:15.611Z,79.28
2022-10-01T21:37:15.647Z,79.28
2022-10-01T21:42:15.652Z,81.25
2022-10-01T21:47:15.776Z,80.92
2022-10-01T21:52:15.821Z,80.86
2022-10-01T21:57:15.745Z,81.60
2022-10-01T22:02:15.681Z,82.75
2022-10-01T22:07:15.730Z,84.25
2022-10-01T22:12:15.657Z,84.25
2022-10-01T22:17:15.685Z,84.00
2022-10-01T22:22:15.622Z,84.90
2022-10-01T22:27:15.670Z,86.40
2022-10-01T22:32:15.642Z,86.39
2022-10-01T22:42:15.676Z,85.46
2022-10-01T22:47:15.876Z,87.38
2022-10-01T22:52:15.657Z,87.38
2022-10-01T22:57:15.675Z,86.56
2022-10-01T23:02:15.831Z,86.56
2022-10-01T23:07:15.641Z,87.12
2022-10-01T23:12:15.750Z,85.08
2022-10-01T23:17:15.647Z,85.08
2022-10-01T23:22:15.689Z,85.89
2022-10-01T23:27:15.811Z,86.14
2022-10-01T23:32:15.691Z,86.48
2022-10-01T23:37:15.698Z,86.66
2022-10-01T23:42:15.692Z,85.59
2022-10-01T23:47:15.728Z,85.51
2022-10-01T23:52:15.660Z,84.84
2022-10-01T23:57:15.701Z,84.80
